Aviation Digital Data Service (ADDS)

Output produced by METARs form (2245 UTC 23 March 2019)
found at http://www.aviationweather.gov/metar/data/
 
Forecast for: DNEN (ENUGU , NG)
Text: TAF DNEN 231530Z 2318/2424 26010KT 8000 TS BKN012 FEW020CB
Forecast period: 1800 to 2000 UTC 23 March 2019
Forecast type: FROM: standard forecast or significant change
Winds: from the W (260 degrees) at 12 MPH (10 knots; 5.1 m/s)
Visibility: 5 miles (8 km)
Ceiling: 1200 feet AGL
Clouds: broken clouds at 1200 feet AGL
few clouds at 2000 feet AGL
Weather: TS  (thunderstorm)
Text: PROB30
Forecast period: 1800 to 2100 UTC 23 March 2019
Forecast type: TEMPORARY: The following changes expected for less than half the time period
Visibility: 3 miles (5 km)
Ceiling: 900 feet AGL
Clouds: broken clouds at 900 feet AGL
few clouds at 2000 feet AGL
Weather: -TSRA  (light rain associated with thunderstorm(s))
Text: TEMPO 2318/2321 5000 -TSRA BKN009 FEW020CB
Forecast period: 2000 UTC 23 March 2019 to 0000 UTC 25 March 2019
Forecast type: BECOMING: Conditions expected to become as follows by 2200 UTC 23 March 2019
Winds: variable direction winds at 2 MPH (2 knots; 1.0 m/s)
Visibility: 5 miles (8 km)
Ceiling: at least 12,000 feet AGL
Clouds: scattered clouds at 900 feet AGL
Weather: NSW  (no significant weather)